sensor_id;sensor_type;location;lat;lon;timestamp;P1;durP1;ratioP1;P2;durP2;ratioP2
41711;SDS011;27399;51.516;13.670;2023-03-01T00:01:00;13.63;;;6.32;;
41711;SDS011;27399;51.516;13.670;2023-03-01T00:03:27;16.95;;;6.03;;
41711;SDS011;27399;51.516;13.670;2023-03-01T00:05:53;16.48;;;5.70;;
41711;SDS011;27399;51.516;13.670;2023-03-01T00:08:18;19.80;;;6.97;;
41711;SDS011;27399;51.516;13.670;2023-03-01T00:10:44;15.88;;;6.60;;
41711;SDS011;27399;51.516;13.670;2023-03-01T00:13:09;17.33;;;6.18;;
41711;SDS011;27399;51.516;13.670;2023-03-01T00:15:38;15.63;;;7.20;;
41711;SDS011;27399;51.516;13.670;2023-03-01T00:18:05;16.30;;;6.93;;
41711;SDS011;27399;51.516;13.670;2023-03-01T00:20:31;17.75;;;5.80;;
41711;SDS011;27399;51.516;13.670;2023-03-01T00:22:56;14.95;;;5.53;;
41711;SDS011;27399;51.516;13.670;2023-03-01T00:25:22;16.30;;;6.10;;
41711;SDS011;27399;51.516;13.670;2023-03-01T00:27:47;15.57;;;6.25;;
41711;SDS011;27399;51.516;13.670;2023-03-01T00:30:14;18.33;;;5.45;;
41711;SDS011;27399;51.516;13.670;2023-03-01T00:32:40;17.00;;;6.15;;
41711;SDS011;27399;51.516;13.670;2023-03-01T00:35:06;14.00;;;5.45;;
41711;SDS011;27399;51.516;13.670;2023-03-01T00:37:31;18.77;;;7.03;;
41711;SDS011;27399;51.516;13.670;2023-03-01T00:39:57;18.17;;;6.32;;
41711;SDS011;27399;51.516;13.670;2023-03-01T00:42:22;16.58;;;6.28;;
41711;SDS011;27399;51.516;13.670;2023-03-01T00:44:48;14.40;;;6.07;;
41711;SDS011;27399;51.516;13.670;2023-03-01T00:47:14;15.75;;;6.65;;
41711;SDS011;27399;51.516;13.670;2023-03-01T00:49:39;15.38;;;6.22;;
41711;SDS011;27399;51.516;13.670;2023-03-01T00:52:05;13.43;;;6.07;;
41711;SDS011;27399;51.516;13.670;2023-03-01T00:54:31;16.02;;;5.85;;
41711;SDS011;27399;51.516;13.670;2023-03-01T00:56:56;14.05;;;5.97;;
41711;SDS011;27399;51.516;13.670;2023-03-01T00:59:22;12.38;;;5.72;;
41711;SDS011;27399;51.516;13.670;2023-03-01T01:01:47;14.32;;;6.38;;
41711;SDS011;27399;51.516;13.670;2023-03-01T01:04:13;17.88;;;6.28;;
41711;SDS011;27399;51.516;13.670;2023-03-01T01:06:40;16.27;;;6.30;;
41711;SDS011;27399;51.516;13.670;2023-03-01T01:09:09;16.50;;;5.82;;
41711;SDS011;27399;51.516;13.670;2023-03-01T01:11:42;14.27;;;5.47;;
41711;SDS011;27399;51.516;13.670;2023-03-01T01:14:11;11.52;;;5.38;;
41711;SDS011;27399;51.516;13.670;2023-03-01T01:16:36;16.67;;;6.55;;
41711;SDS011;27399;51.516;13.670;2023-03-01T01:19:02;12.73;;;6.28;;
41711;SDS011;27399;51.516;13.670;2023-03-01T01:21:29;14.20;;;6.53;;
41711;SDS011;27399;51.516;13.670;2023-03-01T01:23:55;14.38;;;6.57;;
41711;SDS011;27399;51.516;13.670;2023-03-01T01:26:26;14.10;;;6.25;;
41711;SDS011;27399;51.516;13.670;2023-03-01T01:28:53;13.80;;;5.03;;
41711;SDS011;27399;51.516;13.670;2023-03-01T01:31:19;13.15;;;5.68;;
41711;SDS011;27399;51.516;13.670;2023-03-01T01:33:48;12.65;;;5.47;;
41711;SDS011;27399;51.516;13.670;2023-03-01T01:36:14;16.20;;;6.30;;
41711;SDS011;27399;51.516;13.670;2023-03-01T01:38:41;12.75;;;6.03;;
41711;SDS011;27399;51.516;13.670;2023-03-01T01:41:07;17.25;;;6.45;;
41711;SDS011;27399;51.516;13.670;2023-03-01T01:43:46;16.50;;;6.25;;
41711;SDS011;27399;51.516;13.670;2023-03-01T01:46:30;16.90;;;5.75;;
41711;SDS011;27399;51.516;13.670;2023-03-01T01:48:59;11.77;;;5.70;;
41711;SDS011;27399;51.516;13.670;2023-03-01T01:51:31;21.15;;;6.32;;
41711;SDS011;27399;51.516;13.670;2023-03-01T01:54:12;15.60;;;6.45;;
41711;SDS011;27399;51.516;13.670;2023-03-01T01:56:46;17.88;;;6.15;;
41711;SDS011;27399;51.516;13.670;2023-03-01T01:59:17;17.00;;;6.82;;
41711;SDS011;27399;51.516;13.670;2023-03-01T02:01:43;14.93;;;6.47;;
41711;SDS011;27399;51.516;13.670;2023-03-01T02:04:09;16.80;;;7.15;;
41711;SDS011;27399;51.516;13.670;2023-03-01T02:06:38;13.90;;;6.03;;
41711;SDS011;27399;51.516;13.670;2023-03-01T02:09:08;14.70;;;6.13;;
41711;SDS011;27399;51.516;13.670;2023-03-01T02:11:39;18.27;;;6.40;;
41711;SDS011;27399;51.516;13.670;2023-03-01T02:14:06;10.85;;;5.68;;
41711;SDS011;27399;51.516;13.670;2023-03-01T02:16:31;12.52;;;5.53;;
41711;SDS011;27399;51.516;13.670;2023-03-01T02:18:58;13.23;;;5.72;;
41711;SDS011;27399;51.516;13.670;2023-03-01T02:24:17;16.83;;;5.63;;
41711;SDS011;27399;51.516;13.670;2023-03-01T02:26:55;13.27;;;5.30;;
41711;SDS011;27399;51.516;13.670;2023-03-01T02:29:23;15.35;;;5.65;;
41711;SDS011;27399;51.516;13.670;2023-03-01T02:31:49;13.20;;;6.28;;
41711;SDS011;27399;51.516;13.670;2023-03-01T02:34:19;18.00;;;6.15;;
41711;SDS011;27399;51.516;13.670;2023-03-01T02:37:04;15.82;;;5.82;;
41711;SDS011;27399;51.516;13.670;2023-03-01T02:39:35;15.15;;;6.07;;
41711;SDS011;27399;51.516;13.670;2023-03-01T02:42:07;11.70;;;5.57;;
41711;SDS011;27399;51.516;13.670;2023-03-01T02:44:37;11.35;;;5.60;;
41711;SDS011;27399;51.516;13.670;2023-03-01T02:47:03;13.93;;;6.10;;
41711;SDS011;27399;51.516;13.670;2023-03-01T02:49:30;14.75;;;5.90;;
41711;SDS011;27399;51.516;13.670;2023-03-01T02:52:06;11.18;;;5.47;;
41711;SDS011;27399;51.516;13.670;2023-03-01T02:57:26;13.65;;;5.35;;
41711;SDS011;27399;51.516;13.670;2023-03-01T02:59:54;10.68;;;5.13;;
41711;SDS011;27399;51.516;13.670;2023-03-01T03:02:25;15.70;;;5.70;;
41711;SDS011;27399;51.516;13.670;2023-03-01T03:05:04;10.55;;;5.78;;
41711;SDS011;27399;51.516;13.670;2023-03-01T03:07:39;13.80;;;6.32;;
41711;SDS011;27399;51.516;13.670;2023-03-01T03:10:08;11.98;;;5.85;;
41711;SDS011;27399;51.516;13.670;2023-03-01T03:12:36;13.82;;;5.40;;
41711;SDS011;27399;51.516;13.670;2023-03-01T03:15:03;17.83;;;5.53;;
41711;SDS011;27399;51.516;13.670;2023-03-01T03:17:35;19.23;;;6.10;;
41711;SDS011;27399;51.516;13.670;2023-03-01T03:20:02;12.02;;;5.70;;
41711;SDS011;27399;51.516;13.670;2023-03-01T03:22:30;12.48;;;5.15;;
41711;SDS011;27399;51.516;13.670;2023-03-01T03:24:56;11.85;;;5.38;;
41711;SDS011;27399;51.516;13.670;2023-03-01T03:27:22;14.23;;;5.85;;
41711;SDS011;27399;51.516;13.670;2023-03-01T03:29:47;15.13;;;5.88;;
41711;SDS011;27399;51.516;13.670;2023-03-01T03:32:13;12.20;;;4.85;;
41711;SDS011;27399;51.516;13.670;2023-03-01T03:34:38;13.05;;;5.03;;
41711;SDS011;27399;51.516;13.670;2023-03-01T03:37:04;13.45;;;6.28;;
41711;SDS011;27399;51.516;13.670;2023-03-01T03:39:50;15.40;;;5.30;;
41711;SDS011;27399;51.516;13.670;2023-03-01T03:42:20;12.93;;;5.82;;
41711;SDS011;27399;51.516;13.670;2023-03-01T03:44:47;14.75;;;5.68;;
41711;SDS011;27399;51.516;13.670;2023-03-01T03:47:12;14.07;;;5.55;;
41711;SDS011;27399;51.516;13.670;2023-03-01T03:49:38;16.83;;;6.22;;
41711;SDS011;27399;51.516;13.670;2023-03-01T03:52:04;14.93;;;6.20;;
41711;SDS011;27399;51.516;13.670;2023-03-01T03:54:29;12.50;;;5.25;;
41711;SDS011;27399;51.516;13.670;2023-03-01T03:56:55;13.43;;;6.13;;
41711;SDS011;27399;51.516;13.670;2023-03-01T03:59:21;12.88;;;6.10;;
41711;SDS011;27399;51.516;13.670;2023-03-01T04:01:46;16.63;;;6.85;;
41711;SDS011;27399;51.516;13.670;2023-03-01T04:04:12;16.83;;;6.13;;
41711;SDS011;27399;51.516;13.670;2023-03-01T04:06:38;16.63;;;6.00;;
41711;SDS011;27399;51.516;13.670;2023-03-01T04:09:04;13.90;;;5.78;;
41711;SDS011;27399;51.516;13.670;2023-03-01T04:11:29;17.33;;;6.85;;
41711;SDS011;27399;51.516;13.670;2023-03-01T04:13:56;15.90;;;5.93;;
41711;SDS011;27399;51.516;13.670;2023-03-01T04:16:24;17.23;;;6.70;;
41711;SDS011;27399;51.516;13.670;2023-03-01T04:18:50;14.20;;;6.25;;
41711;SDS011;27399;51.516;13.670;2023-03-01T04:21:15;11.38;;;5.68;;
41711;SDS011;27399;51.516;13.670;2023-03-01T04:23:41;16.48;;;6.35;;
41711;SDS011;27399;51.516;13.670;2023-03-01T04:26:07;10.88;;;5.40;;
41711;SDS011;27399;51.516;13.670;2023-03-01T04:28:34;13.35;;;5.93;;
41711;SDS011;27399;51.516;13.670;2023-03-01T04:31:09;13.07;;;5.97;;
41711;SDS011;27399;51.516;13.670;2023-03-01T04:36:19;17.60;;;6.45;;
41711;SDS011;27399;51.516;13.670;2023-03-01T04:38:47;10.75;;;5.80;;
41711;SDS011;27399;51.516;13.670;2023-03-01T04:41:14;13.55;;;6.90;;
41711;SDS011;27399;51.516;13.670;2023-03-01T04:43:40;17.60;;;6.82;;
41711;SDS011;27399;51.516;13.670;2023-03-01T04:46:07;15.60;;;6.95;;
41711;SDS011;27399;51.516;13.670;2023-03-01T04:48:37;15.43;;;6.22;;
41711;SDS011;27399;51.516;13.670;2023-03-01T04:51:04;24.92;;;7.18;;
41711;SDS011;27399;51.516;13.670;2023-03-01T04:53:31;14.10;;;6.45;;
41711;SDS011;27399;51.516;13.670;2023-03-01T04:55:58;15.43;;;6.07;;
41711;SDS011;27399;51.516;13.670;2023-03-01T04:58:24;14.98;;;6.68;;
41711;SDS011;27399;51.516;13.670;2023-03-01T05:00:51;16.20;;;5.90;;
41711;SDS011;27399;51.516;13.670;2023-03-01T05:03:17;15.85;;;6.28;;
41711;SDS011;27399;51.516;13.670;2023-03-01T05:05:43;13.85;;;6.22;;
41711;SDS011;27399;51.516;13.670;2023-03-01T05:08:10;14.07;;;6.00;;
41711;SDS011;27399;51.516;13.670;2023-03-01T05:10:45;16.83;;;6.90;;
41711;SDS011;27399;51.516;13.670;2023-03-01T05:13:14;14.32;;;6.47;;
41711;SDS011;27399;51.516;13.670;2023-03-01T05:15:46;13.88;;;6.88;;
41711;SDS011;27399;51.516;13.670;2023-03-01T05:18:13;13.70;;;6.07;;
41711;SDS011;27399;51.516;13.670;2023-03-01T05:20:39;14.20;;;6.10;;
41711;SDS011;27399;51.516;13.670;2023-03-01T05:23:04;15.20;;;7.20;;
41711;SDS011;27399;51.516;13.670;2023-03-01T05:25:31;12.35;;;6.40;;
41711;SDS011;27399;51.516;13.670;2023-03-01T05:28:05;18.73;;;6.35;;
41711;SDS011;27399;51.516;13.670;2023-03-01T05:30:32;17.02;;;6.75;;
41711;SDS011;27399;51.516;13.670;2023-03-01T05:32:59;18.85;;;6.93;;
41711;SDS011;27399;51.516;13.670;2023-03-01T05:35:26;18.25;;;6.63;;
41711;SDS011;27399;51.516;13.670;2023-03-01T05:37:51;15.32;;;6.35;;
41711;SDS011;27399;51.516;13.670;2023-03-01T05:40:19;16.92;;;7.20;;
41711;SDS011;27399;51.516;13.670;2023-03-01T05:42:47;21.10;;;7.63;;
41711;SDS011;27399;51.516;13.670;2023-03-01T05:45:14;18.33;;;8.80;;
41711;SDS011;27399;51.516;13.670;2023-03-01T05:47:41;20.27;;;7.15;;
41711;SDS011;27399;51.516;13.670;2023-03-01T05:50:25;22.17;;;8.63;;
41711;SDS011;27399;51.516;13.670;2023-03-01T05:53:00;15.93;;;6.28;;
41711;SDS011;27399;51.516;13.670;2023-03-01T05:55:28;16.38;;;7.22;;
41711;SDS011;27399;51.516;13.670;2023-03-01T05:57:57;16.48;;;6.70;;
41711;SDS011;27399;51.516;13.670;2023-03-01T06:00:23;16.98;;;8.07;;
41711;SDS011;27399;51.516;13.670;2023-03-01T06:02:49;17.27;;;7.03;;
41711;SDS011;27399;51.516;13.670;2023-03-01T06:05:16;18.45;;;7.25;;
41711;SDS011;27399;51.516;13.670;2023-03-01T06:07:42;24.90;;;7.63;;
41711;SDS011;27399;51.516;13.670;2023-03-01T06:10:09;17.30;;;7.65;;
41711;SDS011;27399;51.516;13.670;2023-03-01T06:12:37;17.80;;;7.75;;
41711;SDS011;27399;51.516;13.670;2023-03-01T06:15:03;15.43;;;7.20;;
41711;SDS011;27399;51.516;13.670;2023-03-01T06:17:31;16.33;;;7.38;;
41711;SDS011;27399;51.516;13.670;2023-03-01T06:20:02;19.05;;;6.65;;
41711;SDS011;27399;51.516;13.670;2023-03-01T06:22:33;24.77;;;8.35;;
41711;SDS011;27399;51.516;13.670;2023-03-01T06:24:58;15.43;;;6.93;;
41711;SDS011;27399;51.516;13.670;2023-03-01T06:27:24;14.70;;;6.47;;
41711;SDS011;27399;51.516;13.670;2023-03-01T06:29:49;14.63;;;6.93;;
41711;SDS011;27399;51.516;13.670;2023-03-01T06:32:15;17.50;;;7.82;;
41711;SDS011;27399;51.516;13.670;2023-03-01T06:34:41;22.15;;;7.78;;
41711;SDS011;27399;51.516;13.670;2023-03-01T06:37:07;17.77;;;7.38;;
41711;SDS011;27399;51.516;13.670;2023-03-01T06:39:33;15.68;;;6.55;;
41711;SDS011;27399;51.516;13.670;2023-03-01T06:41:59;21.08;;;8.82;;
41711;SDS011;27399;51.516;13.670;2023-03-01T06:44:25;19.88;;;7.80;;
41711;SDS011;27399;51.516;13.670;2023-03-01T06:46:51;19.73;;;8.30;;
41711;SDS011;27399;51.516;13.670;2023-03-01T06:49:16;19.48;;;8.32;;
41711;SDS011;27399;51.516;13.670;2023-03-01T06:51:43;17.45;;;8.15;;
41711;SDS011;27399;51.516;13.670;2023-03-01T06:54:09;17.55;;;7.25;;
41711;SDS011;27399;51.516;13.670;2023-03-01T06:56:35;20.30;;;7.60;;
41711;SDS011;27399;51.516;13.670;2023-03-01T06:59:01;18.10;;;8.18;;
41711;SDS011;27399;51.516;13.670;2023-03-01T07:01:28;14.80;;;6.95;;
41711;SDS011;27399;51.516;13.670;2023-03-01T07:03:54;19.77;;;8.02;;
41711;SDS011;27399;51.516;13.670;2023-03-01T07:06:20;15.27;;;8.07;;
41711;SDS011;27399;51.516;13.670;2023-03-01T07:08:46;17.25;;;7.50;;
41711;SDS011;27399;51.516;13.670;2023-03-01T07:11:12;22.58;;;9.13;;
41711;SDS011;27399;51.516;13.670;2023-03-01T07:13:38;18.70;;;8.25;;
41711;SDS011;27399;51.516;13.670;2023-03-01T07:16:03;19.30;;;8.55;;
41711;SDS011;27399;51.516;13.670;2023-03-01T07:18:29;16.52;;;7.97;;
41711;SDS011;27399;51.516;13.670;2023-03-01T07:20:55;15.25;;;6.82;;
41711;SDS011;27399;51.516;13.670;2023-03-01T07:23:20;16.90;;;6.57;;
41711;SDS011;27399;51.516;13.670;2023-03-01T07:25:52;19.75;;;8.55;;
41711;SDS011;27399;51.516;13.670;2023-03-01T07:28:19;18.83;;;7.15;;
41711;SDS011;27399;51.516;13.670;2023-03-01T07:30:45;15.43;;;6.38;;
41711;SDS011;27399;51.516;13.670;2023-03-01T07:33:10;20.73;;;8.80;;
41711;SDS011;27399;51.516;13.670;2023-03-01T07:35:36;14.60;;;7.30;;
41711;SDS011;27399;51.516;13.670;2023-03-01T07:38:02;13.48;;;6.97;;
41711;SDS011;27399;51.516;13.670;2023-03-01T07:40:27;24.60;;;8.65;;
41711;SDS011;27399;51.516;13.670;2023-03-01T07:42:56;26.92;;;9.57;;
41711;SDS011;27399;51.516;13.670;2023-03-01T07:45:23;21.50;;;8.80;;
41711;SDS011;27399;51.516;13.670;2023-03-01T07:47:50;22.38;;;8.93;;
41711;SDS011;27399;51.516;13.670;2023-03-01T07:50:16;26.90;;;10.32;;
41711;SDS011;27399;51.516;13.670;2023-03-01T07:52:44;20.40;;;9.02;;
41711;SDS011;27399;51.516;13.670;2023-03-01T07:55:10;22.17;;;9.27;;
41711;SDS011;27399;51.516;13.670;2023-03-01T07:57:36;20.50;;;9.85;;
41711;SDS011;27399;51.516;13.670;2023-03-01T08:00:01;24.38;;;9.63;;
41711;SDS011;27399;51.516;13.670;2023-03-01T08:02:28;25.20;;;10.73;;
41711;SDS011;27399;51.516;13.670;2023-03-01T08:04:53;26.80;;;10.48;;
41711;SDS011;27399;51.516;13.670;2023-03-01T08:07:19;28.52;;;11.68;;
41711;SDS011;27399;51.516;13.670;2023-03-01T08:09:44;24.10;;;11.48;;
41711;SDS011;27399;51.516;13.670;2023-03-01T08:12:10;27.42;;;11.45;;
41711;SDS011;27399;51.516;13.670;2023-03-01T08:14:36;26.85;;;12.43;;
41711;SDS011;27399;51.516;13.670;2023-03-01T08:17:02;26.25;;;11.20;;
41711;SDS011;27399;51.516;13.670;2023-03-01T08:19:28;27.90;;;11.50;;
41711;SDS011;27399;51.516;13.670;2023-03-01T08:21:54;30.17;;;12.05;;
41711;SDS011;27399;51.516;13.670;2023-03-01T08:24:20;29.77;;;12.27;;
41711;SDS011;27399;51.516;13.670;2023-03-01T08:26:45;24.23;;;10.68;;
41711;SDS011;27399;51.516;13.670;2023-03-01T08:29:11;28.13;;;11.68;;
41711;SDS011;27399;51.516;13.670;2023-03-01T08:31:38;27.00;;;12.27;;
41711;SDS011;27399;51.516;13.670;2023-03-01T08:34:06;27.95;;;12.45;;
41711;SDS011;27399;51.516;13.670;2023-03-01T08:36:35;28.65;;;11.43;;
41711;SDS011;27399;51.516;13.670;2023-03-01T08:39:03;42.22;;;14.38;;
41711;SDS011;27399;51.516;13.670;2023-03-01T08:41:30;28.73;;;11.10;;
41711;SDS011;27399;51.516;13.670;2023-03-01T08:43:55;33.22;;;12.63;;
41711;SDS011;27399;51.516;13.670;2023-03-01T08:46:27;27.23;;;10.90;;
41711;SDS011;27399;51.516;13.670;2023-03-01T08:48:55;28.73;;;12.30;;
41711;SDS011;27399;51.516;13.670;2023-03-01T08:51:21;26.65;;;13.18;;
41711;SDS011;27399;51.516;13.670;2023-03-01T08:53:47;33.47;;;12.75;;
41711;SDS011;27399;51.516;13.670;2023-03-01T08:56:13;30.17;;;13.10;;
41711;SDS011;27399;51.516;13.670;2023-03-01T08:58:42;38.63;;;13.50;;
41711;SDS011;27399;51.516;13.670;2023-03-01T09:01:28;31.30;;;12.95;;
41711;SDS011;27399;51.516;13.670;2023-03-01T09:03:54;30.83;;;12.70;;
41711;SDS011;27399;51.516;13.670;2023-03-01T09:06:19;36.97;;;14.27;;
41711;SDS011;27399;51.516;13.670;2023-03-01T09:08:46;33.55;;;14.25;;
41711;SDS011;27399;51.516;13.670;2023-03-01T09:11:15;32.88;;;13.32;;
41711;SDS011;27399;51.516;13.670;2023-03-01T09:13:43;27.92;;;12.63;;
41711;SDS011;27399;51.516;13.670;2023-03-01T09:16:10;33.67;;;13.00;;
41711;SDS011;27399;51.516;13.670;2023-03-01T09:18:37;32.15;;;13.55;;
41711;SDS011;27399;51.516;13.670;2023-03-01T09:24:21;38.20;;;14.52;;
41711;SDS011;27399;51.516;13.670;2023-03-01T09:26:49;27.83;;;11.80;;
41711;SDS011;27399;51.516;13.670;2023-03-01T09:29:17;34.33;;;13.98;;
41711;SDS011;27399;51.516;13.670;2023-03-01T09:31:43;27.45;;;12.70;;
41711;SDS011;27399;51.516;13.670;2023-03-01T09:34:08;31.73;;;11.40;;
41711;SDS011;27399;51.516;13.670;2023-03-01T09:36:34;28.95;;;11.82;;
41711;SDS011;27399;51.516;13.670;2023-03-01T09:39:01;28.70;;;11.40;;
41711;SDS011;27399;51.516;13.670;2023-03-01T09:44:28;26.55;;;10.95;;
41711;SDS011;27399;51.516;13.670;2023-03-01T09:47:09;26.27;;;10.57;;
41711;SDS011;27399;51.516;13.670;2023-03-01T09:49:47;25.25;;;11.07;;
41711;SDS011;27399;51.516;13.670;2023-03-01T09:52:34;26.50;;;11.15;;
41711;SDS011;27399;51.516;13.670;2023-03-01T09:55:10;22.60;;;10.98;;
41711;SDS011;27399;51.516;13.670;2023-03-01T09:58:00;26.17;;;11.25;;
41711;SDS011;27399;51.516;13.670;2023-03-01T10:00:49;26.20;;;10.98;;
41711;SDS011;27399;51.516;13.670;2023-03-01T10:06:08;23.48;;;10.32;;
41711;SDS011;27399;51.516;13.670;2023-03-01T10:14:39;25.02;;;10.02;;
41711;SDS011;27399;51.516;13.670;2023-03-01T10:17:23;22.92;;;10.43;;
41711;SDS011;27399;51.516;13.670;2023-03-01T10:19:52;24.58;;;10.50;;
41711;SDS011;27399;51.516;13.670;2023-03-01T10:22:21;17.83;;;8.80;;
41711;SDS011;27399;51.516;13.670;2023-03-01T10:24:56;18.15;;;8.63;;
41711;SDS011;27399;51.516;13.670;2023-03-01T10:27:24;19.20;;;9.63;;
41711;SDS011;27399;51.516;13.670;2023-03-01T10:30:16;21.85;;;9.65;;
41711;SDS011;27399;51.516;13.670;2023-03-01T10:32:54;19.70;;;9.07;;
41711;SDS011;27399;51.516;13.670;2023-03-01T10:35:23;19.58;;;9.68;;
41711;SDS011;27399;51.516;13.670;2023-03-01T10:40:34;20.98;;;11.23;;
41711;SDS011;27399;51.516;13.670;2023-03-01T10:43:02;25.02;;;11.50;;
41711;SDS011;27399;51.516;13.670;2023-03-01T10:48:05;27.20;;;10.95;;
41711;SDS011;27399;51.516;13.670;2023-03-01T10:50:38;24.73;;;10.88;;
41711;SDS011;27399;51.516;13.670;2023-03-01T10:53:10;28.58;;;12.50;;
41711;SDS011;27399;51.516;13.670;2023-03-01T10:56:06;24.23;;;11.65;;
41711;SDS011;27399;51.516;13.670;2023-03-01T10:58:35;27.95;;;12.18;;
41711;SDS011;27399;51.516;13.670;2023-03-01T11:06:33;26.50;;;11.52;;
41711;SDS011;27399;51.516;13.670;2023-03-01T11:09:14;23.75;;;11.38;;
41711;SDS011;27399;51.516;13.670;2023-03-01T11:11:51;24.48;;;11.13;;
41711;SDS011;27399;51.516;13.670;2023-03-01T11:14:20;22.38;;;10.40;;
41711;SDS011;27399;51.516;13.670;2023-03-01T11:16:48;26.63;;;11.30;;
41711;SDS011;27399;51.516;13.670;2023-03-01T11:19:25;26.77;;;10.50;;
41711;SDS011;27399;51.516;13.670;2023-03-01T11:24:51;21.10;;;10.23;;
41711;SDS011;27399;51.516;13.670;2023-03-01T11:27:24;19.83;;;9.20;;
41711;SDS011;27399;51.516;13.670;2023-03-01T11:30:05;18.50;;;8.82;;
41711;SDS011;27399;51.516;13.670;2023-03-01T11:33:03;21.13;;;8.57;;
41711;SDS011;27399;51.516;13.670;2023-03-01T11:35:29;24.60;;;9.10;;
41711;SDS011;27399;51.516;13.670;2023-03-01T11:37:59;19.40;;;9.05;;
41711;SDS011;27399;51.516;13.670;2023-03-01T11:43:26;21.85;;;9.52;;
41711;SDS011;27399;51.516;13.670;2023-03-01T11:56:50;13.98;;;6.97;;
41711;SDS011;27399;51.516;13.670;2023-03-01T12:07:23;12.88;;;6.20;;
41711;SDS011;27399;51.516;13.670;2023-03-01T12:13:03;16.58;;;7.22;;
41711;SDS011;27399;51.516;13.670;2023-03-01T12:30:25;12.13;;;5.68;;
41711;SDS011;27399;51.516;13.670;2023-03-01T12:43:58;10.93;;;5.10;;
41711;SDS011;27399;51.516;13.670;2023-03-01T12:46:57;13.38;;;5.80;;
41711;SDS011;27399;51.516;13.670;2023-03-01T12:52:35;10.98;;;4.88;;
41711;SDS011;27399;51.516;13.670;2023-03-01T12:55:18;9.88;;;4.70;;
41711;SDS011;27399;51.516;13.670;2023-03-01T12:58:00;12.75;;;5.82;;
41711;SDS011;27399;51.516;13.670;2023-03-01T13:00:40;15.32;;;6.97;;
41711;SDS011;27399;51.516;13.670;2023-03-01T13:03:29;16.23;;;7.45;;
41711;SDS011;27399;51.516;13.670;2023-03-01T13:08:49;20.70;;;6.50;;
41711;SDS011;27399;51.516;13.670;2023-03-01T13:11:22;11.98;;;7.13;;
41711;SDS011;27399;51.516;13.670;2023-03-01T13:13:49;14.73;;;6.28;;
41711;SDS011;27399;51.516;13.670;2023-03-01T13:16:20;11.57;;;5.65;;
41711;SDS011;27399;51.516;13.670;2023-03-01T13:19:15;14.95;;;6.78;;
41711;SDS011;27399;51.516;13.670;2023-03-01T13:21:43;11.10;;;5.70;;
41711;SDS011;27399;51.516;13.670;2023-03-01T13:34:50;16.40;;;6.38;;
41711;SDS011;27399;51.516;13.670;2023-03-01T13:37:19;13.90;;;7.05;;
41711;SDS011;27399;51.516;13.670;2023-03-01T13:39:51;22.80;;;6.22;;
41711;SDS011;27399;51.516;13.670;2023-03-01T13:42:34;12.52;;;6.07;;
41711;SDS011;27399;51.516;13.670;2023-03-01T13:45:03;12.82;;;6.38;;
41711;SDS011;27399;51.516;13.670;2023-03-01T13:47:54;13.30;;;5.82;;
41711;SDS011;27399;51.516;13.670;2023-03-01T13:50:25;15.48;;;6.82;;
41711;SDS011;27399;51.516;13.670;2023-03-01T13:52:58;13.02;;;5.93;;
41711;SDS011;27399;51.516;13.670;2023-03-01T13:55:36;13.90;;;6.28;;
41711;SDS011;27399;51.516;13.670;2023-03-01T14:01:03;12.55;;;5.68;;
41711;SDS011;27399;51.516;13.670;2023-03-01T14:03:30;12.13;;;6.13;;
41711;SDS011;27399;51.516;13.670;2023-03-01T14:06:05;9.95;;;4.70;;
41711;SDS011;27399;51.516;13.670;2023-03-01T14:08:38;12.75;;;5.78;;
41711;SDS011;27399;51.516;13.670;2023-03-01T14:16:29;12.68;;;5.60;;
41711;SDS011;27399;51.516;13.670;2023-03-01T14:19:23;20.27;;;6.18;;
41711;SDS011;27399;51.516;13.670;2023-03-01T14:24:52;12.30;;;5.63;;
41711;SDS011;27399;51.516;13.670;2023-03-01T14:27:21;11.10;;;5.05;;
41711;SDS011;27399;51.516;13.670;2023-03-01T14:29:55;11.27;;;5.20;;
41711;SDS011;27399;51.516;13.670;2023-03-01T14:32:26;13.20;;;5.30;;
41711;SDS011;27399;51.516;13.670;2023-03-01T14:34:54;11.85;;;4.93;;
41711;SDS011;27399;51.516;13.670;2023-03-01T14:37:23;11.70;;;5.15;;
41711;SDS011;27399;51.516;13.670;2023-03-01T14:39:51;11.83;;;4.70;;
41711;SDS011;27399;51.516;13.670;2023-03-01T14:42:18;10.05;;;4.57;;
41711;SDS011;27399;51.516;13.670;2023-03-01T14:44:46;10.35;;;4.68;;
41711;SDS011;27399;51.516;13.670;2023-03-01T14:47:15;10.50;;;4.70;;
41711;SDS011;27399;51.516;13.670;2023-03-01T14:49:49;10.95;;;4.97;;
41711;SDS011;27399;51.516;13.670;2023-03-01T14:52:21;12.15;;;5.28;;
41711;SDS011;27399;51.516;13.670;2023-03-01T14:54:52;13.90;;;5.00;;
41711;SDS011;27399;51.516;13.670;2023-03-01T14:57:20;8.77;;;4.57;;
41711;SDS011;27399;51.516;13.670;2023-03-01T14:59:49;9.47;;;4.60;;
41711;SDS011;27399;51.516;13.670;2023-03-01T15:02:19;11.52;;;5.63;;
41711;SDS011;27399;51.516;13.670;2023-03-01T15:04:49;10.85;;;5.65;;
41711;SDS011;27399;51.516;13.670;2023-03-01T15:07:17;11.70;;;5.28;;
41711;SDS011;27399;51.516;13.670;2023-03-01T15:09:44;13.82;;;5.72;;
41711;SDS011;27399;51.516;13.670;2023-03-01T15:12:24;15.63;;;5.70;;
41711;SDS011;27399;51.516;13.670;2023-03-01T15:14:52;12.95;;;5.53;;
41711;SDS011;27399;51.516;13.670;2023-03-01T15:19:56;11.52;;;5.75;;
41711;SDS011;27399;51.516;13.670;2023-03-01T15:22:22;11.27;;;5.13;;
41711;SDS011;27399;51.516;13.670;2023-03-01T15:24:49;15.27;;;4.97;;
41711;SDS011;27399;51.516;13.670;2023-03-01T15:27:21;10.63;;;4.53;;
41711;SDS011;27399;51.516;13.670;2023-03-01T15:29:52;8.35;;;4.05;;
41711;SDS011;27399;51.516;13.670;2023-03-01T15:34:50;10.27;;;4.65;;
41711;SDS011;27399;51.516;13.670;2023-03-01T15:40:24;11.48;;;4.40;;
41711;SDS011;27399;51.516;13.670;2023-03-01T15:42:57;8.95;;;4.13;;
41711;SDS011;27399;51.516;13.670;2023-03-01T15:45:24;9.80;;;4.20;;
41711;SDS011;27399;51.516;13.670;2023-03-01T15:48:13;13.35;;;4.35;;
41711;SDS011;27399;51.516;13.670;2023-03-01T15:50:42;5.97;;;3.20;;
41711;SDS011;27399;51.516;13.670;2023-03-01T15:53:13;11.10;;;3.92;;
41711;SDS011;27399;51.516;13.670;2023-03-01T15:55:40;7.72;;;3.53;;
41711;SDS011;27399;51.516;13.670;2023-03-01T15:58:10;8.32;;;3.17;;
41711;SDS011;27399;51.516;13.670;2023-03-01T16:00:38;9.95;;;3.72;;
41711;SDS011;27399;51.516;13.670;2023-03-01T16:03:05;9.55;;;4.00;;
41711;SDS011;27399;51.516;13.670;2023-03-01T16:05:32;11.10;;;3.40;;
41711;SDS011;27399;51.516;13.670;2023-03-01T16:08:01;9.25;;;3.53;;
41711;SDS011;27399;51.516;13.670;2023-03-01T16:10:27;9.30;;;3.72;;
41711;SDS011;27399;51.516;13.670;2023-03-01T16:12:53;7.32;;;2.97;;
41711;SDS011;27399;51.516;13.670;2023-03-01T16:17:49;11.50;;;3.55;;
41711;SDS011;27399;51.516;13.670;2023-03-01T16:20:15;8.57;;;3.33;;
41711;SDS011;27399;51.516;13.670;2023-03-01T16:22:42;8.13;;;3.67;;
41711;SDS011;27399;51.516;13.670;2023-03-01T16:25:09;5.78;;;2.70;;
41711;SDS011;27399;51.516;13.670;2023-03-01T16:27:37;18.27;;;3.70;;
41711;SDS011;27399;51.516;13.670;2023-03-01T16:30:04;9.57;;;3.20;;
41711;SDS011;27399;51.516;13.670;2023-03-01T16:32:31;13.02;;;3.83;;
41711;SDS011;27399;51.516;13.670;2023-03-01T16:34:57;10.18;;;4.18;;
41711;SDS011;27399;51.516;13.670;2023-03-01T16:37:22;13.35;;;3.80;;
41711;SDS011;27399;51.516;13.670;2023-03-01T16:39:48;15.02;;;3.20;;